createdAt,value
2017-10-20T00:02:08.337Z,12.63
2017-10-20T00:04:36.911Z,13.10
2017-10-20T00:07:05.390Z,13.90
2017-10-20T00:09:34.000Z,13.53
2017-10-20T00:12:02.384Z,13.00
2017-10-20T00:14:30.757Z,12.70
2017-10-20T00:16:59.134Z,12.90
2017-10-20T00:19:29.031Z,12.50
2017-10-20T00:21:57.389Z,13.20
2017-10-20T00:24:25.766Z,12.07
2017-10-20T00:26:54.356Z,12.00
2017-10-20T00:29:22.865Z,12.80
2017-10-20T00:31:51.756Z,12.10
2017-10-20T00:34:20.124Z,11.27
2017-10-20T00:36:48.490Z,11.77
2017-10-20T00:39:16.854Z,11.23
2017-10-20T00:41:45.315Z,11.53
2017-10-20T00:44:14.149Z,11.97
2017-10-20T00:46:42.506Z,11.43
2017-10-20T00:49:10.880Z,10.87
2017-10-20T00:51:39.443Z,10.80
2017-10-20T00:54:07.819Z,10.70
2017-10-20T00:56:35.490Z,11.60
2017-10-20T00:59:03.167Z,10.93
2017-10-20T01:01:32.367Z,11.17
2017-10-20T01:04:00.767Z,11.60
2017-10-20T01:06:29.135Z,11.50
2017-10-20T01:09:00.686Z,12.03
2017-10-20T01:11:29.828Z,11.90
2017-10-20T01:13:57.838Z,11.70
2017-10-20T01:16:26.343Z,12.20
2017-10-20T01:18:55.090Z,11.70
2017-10-20T01:21:22.787Z,11.77
2017-10-20T01:23:51.919Z,11.00
2017-10-20T01:26:20.295Z,10.80
2017-10-20T01:28:48.641Z,10.60
2017-10-20T01:31:16.671Z,11.33
2017-10-20T01:33:44.361Z,10.57
2017-10-20T01:36:12.047Z,10.67
2017-10-20T01:38:40.239Z,10.67
2017-10-20T01:41:08.275Z,11.57
2017-10-20T01:43:36.290Z,11.17
2017-10-20T01:46:04.519Z,11.20
2017-10-20T01:48:32.328Z,12.33
2017-10-20T01:51:00.019Z,12.07
2017-10-20T01:53:27.683Z,12.37
2017-10-20T01:55:55.372Z,12.37
2017-10-20T01:58:23.070Z,11.87
2017-10-20T02:00:51.104Z,12.03
2017-10-20T02:03:19.129Z,12.33
2017-10-20T02:05:47.758Z,12.40
2017-10-20T02:08:16.140Z,12.83
2017-10-20T02:10:44.571Z,11.17
2017-10-20T02:13:12.952Z,13.10
2017-10-20T02:15:40.981Z,12.67
2017-10-20T02:18:09.346Z,12.73
2017-10-20T02:20:37.723Z,14.40
2017-10-20T02:23:06.096Z,13.43
2017-10-20T02:25:34.467Z,14.00
2017-10-20T02:28:02.858Z,12.97
2017-10-20T02:30:31.335Z,13.80
2017-10-20T02:32:59.699Z,14.10
2017-10-20T02:35:28.069Z,14.00
2017-10-20T02:37:55.957Z,13.57
2017-10-20T02:40:24.311Z,13.10
2017-10-20T02:42:52.687Z,13.23
2017-10-20T02:45:21.079Z,12.60
2017-10-20T02:47:49.513Z,13.30
2017-10-20T02:50:17.192Z,13.13
2017-10-20T02:52:45.300Z,12.93
2017-10-20T02:55:14.465Z,12.10
2017-10-20T02:57:42.842Z,12.60
2017-10-20T03:00:10.531Z,13.20
2017-10-20T03:02:38.891Z,12.63
2017-10-20T03:05:07.256Z,13.60
2017-10-20T03:07:35.626Z,12.80
2017-10-20T03:10:10.018Z,12.23
2017-10-20T03:12:38.394Z,13.07
2017-10-20T03:15:06.885Z,12.80
2017-10-20T03:17:35.248Z,13.20
2017-10-20T03:20:03.632Z,12.50
2017-10-20T03:22:32.260Z,11.57
2017-10-20T03:25:00.635Z,11.10
2017-10-20T03:27:28.998Z,11.27
2017-10-20T03:29:57.368Z,11.93
2017-10-20T03:32:25.805Z,10.57
2017-10-20T03:34:54.251Z,10.50
2017-10-20T03:37:22.636Z,11.53
2017-10-20T03:39:51.783Z,11.60
2017-10-20T03:42:20.150Z,11.30
2017-10-20T03:44:48.542Z,12.43
2017-10-20T03:47:16.911Z,11.00
2017-10-20T03:49:45.283Z,10.60
2017-10-20T03:52:13.697Z,11.13
2017-10-20T03:54:42.083Z,10.70
2017-10-20T03:57:10.874Z,11.50
2017-10-20T03:59:39.273Z,11.53
2017-10-20T04:02:07.636Z,11.30
2017-10-20T04:04:35.941Z,10.37
2017-10-20T04:07:04.120Z,10.70
2017-10-20T04:09:32.483Z,10.47
2017-10-20T04:12:00.638Z,11.33
2017-10-20T04:14:29.016Z,10.87
2017-10-20T04:16:57.218Z,10.90
2017-10-20T04:19:25.419Z,11.90
2017-10-20T04:21:53.785Z,10.20
2017-10-20T04:24:21.903Z,10.80
2017-10-20T04:26:50.081Z,11.63
2017-10-20T04:29:18.418Z,11.97
2017-10-20T04:31:46.639Z,12.50
2017-10-20T04:34:14.821Z,12.13
2017-10-20T04:36:43.270Z,12.77
2017-10-20T04:39:11.795Z,14.43
2017-10-20T04:41:40.170Z,13.60
2017-10-20T04:44:08.540Z,13.70
2017-10-20T04:46:37.080Z,13.00
2017-10-20T04:49:05.520Z,13.23
2017-10-20T04:51:33.901Z,13.10
2017-10-20T04:54:02.283Z,13.07
2017-10-20T04:56:30.671Z,13.70
2017-10-20T04:58:59.064Z,15.53
2017-10-20T05:01:27.436Z,14.80
2017-10-20T05:03:56.020Z,16.13
2017-10-20T05:06:24.376Z,15.10
2017-10-20T05:08:52.772Z,15.53
2017-10-20T05:11:21.452Z,16.47
2017-10-20T05:13:50.041Z,16.10
2017-10-20T05:16:18.413Z,15.93
2017-10-20T05:18:46.810Z,14.60
2017-10-20T05:21:15.174Z,16.10
2017-10-20T05:23:43.650Z,16.00
2017-10-20T05:26:12.072Z,16.17
2017-10-20T05:28:40.599Z,15.80
2017-10-20T05:31:08.982Z,16.40
2017-10-20T05:33:37.354Z,16.83
2017-10-20T05:36:05.735Z,14.80
2017-10-20T05:38:34.105Z,16.37
2017-10-20T05:41:02.504Z,16.63
2017-10-20T05:43:30.875Z,16.40
2017-10-20T05:45:59.235Z,16.03
2017-10-20T05:48:27.611Z,16.93
2017-10-20T05:50:56.109Z,16.13
2017-10-20T05:53:24.471Z,16.23
2017-10-20T05:55:52.894Z,15.17
2017-10-20T05:58:22.057Z,16.70
2017-10-20T06:00:50.685Z,16.97
2017-10-20T06:03:20.019Z,15.87
2017-10-20T06:05:48.389Z,15.40
2017-10-20T06:08:16.965Z,15.10
2017-10-20T06:10:45.830Z,15.40
2017-10-20T06:13:14.199Z,13.87
2017-10-20T06:15:43.336Z,13.97
2017-10-20T06:18:11.799Z,14.67
2017-10-20T06:20:40.282Z,13.80
2017-10-20T06:23:08.655Z,13.30
2017-10-20T06:25:37.383Z,13.70
2017-10-20T06:28:05.758Z,15.20
2017-10-20T06:30:34.196Z,13.67
2017-10-20T06:33:02.773Z,13.70
2017-10-20T06:35:31.150Z,13.80
2017-10-20T06:37:59.341Z,12.60
2017-10-20T06:40:27.385Z,13.37
2017-10-20T06:42:55.747Z,11.57
2017-10-20T06:45:24.108Z,12.77
2017-10-20T06:47:52.471Z,12.10
2017-10-20T06:50:20.841Z,11.63
2017-10-20T06:52:49.208Z,11.10
2017-10-20T06:55:17.233Z,11.40
2017-10-20T06:57:45.612Z,10.70
2017-10-20T07:00:13.998Z,9.90
2017-10-20T07:02:42.157Z,9.30
2017-10-20T07:05:10.171Z,9.90
2017-10-20T07:07:38.701Z,10.80
2017-10-20T07:10:07.061Z,10.93
2017-10-20T07:12:35.194Z,11.40
2017-10-20T07:15:03.220Z,12.20
2017-10-20T07:17:31.654Z,11.80
2017-10-20T07:19:59.835Z,12.07
2017-10-20T07:22:28.804Z,13.63
2017-10-20T07:24:57.331Z,12.53
2017-10-20T07:27:25.712Z,13.20
2017-10-20T07:29:53.902Z,13.30
2017-10-20T07:32:21.596Z,13.20
2017-10-20T07:34:49.981Z,13.03
2017-10-20T07:37:19.068Z,13.80
2017-10-20T07:39:47.450Z,13.17
2017-10-20T07:42:15.860Z,12.50
2017-10-20T07:44:44.193Z,13.23
2017-10-20T07:47:12.817Z,13.40
2017-10-20T07:49:40.827Z,13.27
2017-10-20T07:52:09.448Z,13.03
2017-10-20T07:54:37.820Z,13.23
2017-10-20T07:57:06.186Z,13.50
2017-10-20T07:59:35.333Z,14.20
2017-10-20T08:02:03.359Z,13.43
2017-10-20T08:04:31.739Z,13.20
2017-10-20T08:07:00.107Z,12.20
2017-10-20T08:09:28.479Z,13.30
2017-10-20T08:11:57.623Z,13.57
2017-10-20T08:14:25.639Z,13.97
2017-10-20T08:16:54.794Z,14.53
2017-10-20T08:19:23.174Z,16.00
2017-10-20T08:21:51.554Z,17.77
2017-10-20T08:24:19.942Z,17.70
2017-10-20T08:26:48.316Z,15.03
2017-10-20T08:29:16.743Z,12.10
2017-10-20T08:31:45.109Z,9.40
2017-10-20T08:34:13.504Z,9.03
2017-10-20T08:36:41.863Z,8.80
2017-10-20T08:39:10.243Z,8.80
2017-10-20T08:41:38.621Z,14.43
2017-10-20T08:44:06.300Z,25.57
2017-10-20T08:46:34.003Z,28.93
2017-10-20T08:49:02.641Z,26.77
2017-10-20T08:51:31.101Z,21.37
2017-10-20T08:53:59.475Z,18.97
2017-10-20T08:56:27.871Z,14.83
2017-10-20T08:58:56.246Z,8.80
2017-10-20T09:01:24.685Z,5.10
2017-10-20T09:06:19.922Z,4.63
2017-10-20T09:08:48.279Z,3.10
2017-10-20T09:11:16.648Z,2.80
2017-10-20T09:13:45.049Z,2.60
2017-10-20T09:16:13.394Z,2.63
2017-10-20T09:18:42.017Z,3.23
2017-10-20T09:21:10.484Z,2.30
2017-10-20T09:23:39.121Z,2.60
2017-10-20T09:26:07.485Z,2.70
2017-10-20T09:28:35.921Z,2.10
2017-10-20T09:31:04.283Z,1.70
2017-10-20T09:33:32.639Z,2.40
2017-10-20T09:36:01.777Z,2.10
2017-10-20T09:38:30.149Z,1.73
2017-10-20T09:40:58.499Z,1.90
2017-10-20T09:43:27.096Z,1.77
2017-10-20T09:45:55.680Z,2.27
2017-10-20T09:48:24.035Z,2.57
2017-10-20T09:50:52.414Z,1.97
2017-10-20T09:53:21.215Z,2.10
2017-10-20T09:55:49.571Z,1.80
2017-10-20T09:58:18.694Z,2.20
2017-10-20T10:00:47.071Z,1.90
2017-10-20T10:03:15.473Z,2.30
2017-10-20T10:05:43.855Z,2.27
2017-10-20T10:08:12.033Z,2.37
2017-10-20T10:10:40.606Z,2.20
2017-10-20T10:13:08.788Z,2.50
2017-10-20T10:15:37.213Z,2.20
2017-10-20T10:18:05.577Z,1.90
2017-10-20T10:20:33.963Z,2.00
2017-10-20T10:23:02.130Z,2.77
2017-10-20T10:25:30.301Z,2.50
2017-10-20T10:27:58.611Z,2.53
2017-10-20T10:30:26.783Z,2.53
2017-10-20T10:32:55.543Z,2.50
2017-10-20T10:35:23.900Z,2.17
2017-10-20T10:37:52.222Z,2.53
2017-10-20T10:40:20.575Z,2.50
2017-10-20T10:42:49.046Z,2.23
2017-10-20T10:45:17.416Z,2.13
2017-10-20T10:47:45.432Z,2.30
2017-10-20T10:50:13.862Z,2.40
2017-10-20T10:52:42.238Z,2.23
2017-10-20T10:55:10.614Z,2.53
2017-10-20T10:57:38.959Z,2.37
2017-10-20T11:00:07.759Z,2.20
2017-10-20T11:02:36.661Z,2.17
2017-10-20T11:05:08.135Z,3.10
2017-10-20T11:07:48.335Z,2.60
2017-10-20T11:10:27.901Z,2.57
2017-10-20T11:13:01.362Z,2.33
2017-10-20T11:15:29.108Z,3.30
2017-10-20T11:17:57.641Z,2.73
2017-10-20T11:20:26.001Z,2.40
2017-10-20T11:22:54.495Z,2.17
2017-10-20T11:25:22.869Z,2.60
2017-10-20T11:27:51.245Z,2.37
2017-10-20T11:30:19.991Z,2.10
2017-10-20T11:32:49.120Z,2.30
2017-10-20T11:35:17.804Z,2.60
2017-10-20T11:37:46.246Z,2.50
2017-10-20T11:40:14.804Z,2.47
2017-10-20T11:42:43.238Z,2.63
2017-10-20T11:45:11.591Z,2.70
2017-10-20T11:47:40.734Z,2.30
2017-10-20T11:50:09.087Z,2.23
2017-10-20T11:52:37.453Z,2.47
2017-10-20T11:55:05.815Z,2.30
2017-10-20T11:57:34.556Z,2.63
2017-10-20T12:00:02.923Z,3.33
2017-10-20T12:02:31.352Z,2.73
2017-10-20T12:05:00.213Z,2.43
2017-10-20T12:07:28.635Z,2.53
2017-10-20T12:09:56.644Z,2.50
2017-10-20T12:12:25.013Z,2.70
2017-10-20T12:14:53.379Z,2.80
2017-10-20T12:17:21.216Z,2.50
2017-10-20T12:19:49.593Z,2.70
2017-10-20T12:22:17.947Z,3.00
2017-10-20T12:24:46.925Z,2.80
2017-10-20T12:27:16.257Z,2.40
2017-10-20T12:29:44.632Z,3.00
2017-10-20T12:32:13.077Z,2.37
2017-10-20T12:34:42.321Z,2.50
2017-10-20T12:37:10.688Z,2.50
2017-10-20T12:39:39.478Z,2.80
2017-10-20T12:42:08.058Z,2.40
2017-10-20T12:44:36.492Z,2.77
2017-10-20T12:47:05.720Z,2.80
2017-10-20T12:49:34.099Z,2.23
2017-10-20T12:52:02.473Z,2.50
2017-10-20T12:54:30.825Z,2.67
2017-10-20T12:56:59.966Z,2.60
2017-10-20T12:59:28.337Z,3.07
2017-10-20T13:01:56.698Z,2.90
2017-10-20T13:04:24.877Z,2.57
2017-10-20T13:06:53.345Z,2.47
2017-10-20T13:09:21.783Z,2.77
2017-10-20T13:11:50.196Z,2.60
2017-10-20T13:14:18.570Z,2.53
2017-10-20T13:16:46.931Z,2.60
2017-10-20T13:19:15.326Z,2.57
2017-10-20T13:21:43.703Z,2.33
2017-10-20T13:24:12.103Z,2.87
2017-10-20T13:26:40.460Z,2.77
2017-10-20T13:29:08.833Z,2.80
2017-10-20T13:31:37.409Z,2.77
2017-10-20T13:34:05.784Z,2.40
2017-10-20T13:36:34.460Z,2.73
2017-10-20T13:39:02.927Z,2.70
2017-10-20T13:41:31.286Z,2.93
2017-10-20T13:44:00.995Z,2.30
2017-10-20T13:46:29.353Z,2.30
2017-10-20T13:48:57.880Z,2.47
2017-10-20T13:51:26.261Z,2.80
2017-10-20T13:53:54.645Z,3.00
2017-10-20T13:56:23.015Z,2.53
2017-10-20T13:58:51.386Z,2.50
2017-10-20T14:01:19.763Z,2.73
2017-10-20T14:03:48.007Z,2.63
2017-10-20T14:06:16.940Z,2.73
2017-10-20T14:08:45.370Z,2.80
2017-10-20T14:11:14.507Z,2.40
2017-10-20T14:13:42.887Z,2.43
2017-10-20T14:16:11.811Z,2.67
2017-10-20T14:18:40.175Z,2.53
2017-10-20T14:21:08.539Z,2.43
2017-10-20T14:23:36.900Z,2.40
2017-10-20T14:26:05.470Z,2.30
2017-10-20T14:28:33.859Z,2.40
2017-10-20T14:31:02.957Z,2.40
2017-10-20T14:33:31.332Z,2.50
2017-10-20T14:35:59.702Z,2.53
2017-10-20T14:38:28.083Z,3.43
2017-10-20T14:40:56.818Z,2.40
2017-10-20T14:43:25.175Z,2.80
2017-10-20T14:45:54.185Z,3.70
2017-10-20T14:48:22.562Z,2.90
2017-10-20T14:50:50.923Z,2.67
2017-10-20T14:53:19.340Z,2.33
2017-10-20T14:55:47.830Z,2.50
2017-10-20T14:58:16.504Z,3.23
2017-10-20T15:00:44.879Z,2.80
2017-10-20T15:03:13.239Z,2.80
2017-10-20T15:05:41.598Z,2.47
2017-10-20T15:08:10.935Z,3.33
2017-10-20T15:10:39.288Z,3.10
2017-10-20T15:13:07.643Z,2.50
2017-10-20T15:15:36.830Z,2.83
2017-10-20T15:18:05.196Z,2.67
2017-10-20T15:20:33.638Z,2.70
2017-10-20T15:23:02.076Z,2.37
2017-10-20T15:25:31.231Z,3.13
2017-10-20T15:27:59.594Z,2.40
2017-10-20T15:30:27.963Z,2.30
2017-10-20T15:32:56.331Z,2.53
2017-10-20T15:35:24.697Z,2.40
2017-10-20T15:37:53.091Z,2.70
2017-10-20T15:40:21.470Z,2.70
2017-10-20T15:42:50.135Z,2.47
2017-10-20T15:45:18.491Z,3.07
2017-10-20T15:47:46.868Z,3.20
2017-10-20T15:50:15.231Z,2.80
2017-10-20T15:52:44.361Z,2.90
2017-10-20T15:55:12.748Z,2.80
2017-10-20T15:57:41.115Z,2.80
2017-10-20T16:00:09.488Z,3.00
2017-10-20T16:02:38.027Z,2.67
2017-10-20T16:05:07.159Z,2.47
2017-10-20T16:07:35.532Z,2.60
2017-10-20T16:10:04.113Z,2.60
2017-10-20T16:12:32.464Z,2.97
2017-10-20T16:15:01.841Z,2.83
2017-10-20T16:17:30.196Z,3.40
2017-10-20T16:19:59.153Z,4.20
2017-10-20T16:22:27.607Z,3.53
2017-10-20T16:24:56.740Z,2.90
2017-10-20T16:27:25.110Z,3.07
2017-10-20T16:29:53.492Z,3.13
2017-10-20T16:32:21.952Z,3.00
2017-10-20T16:34:50.582Z,2.73
2017-10-20T16:37:18.942Z,3.30
2017-10-20T16:39:47.314Z,2.80
2017-10-20T16:42:15.693Z,3.53
2017-10-20T16:44:44.048Z,3.37
2017-10-20T16:47:12.428Z,3.53
2017-10-20T16:49:40.798Z,3.30
2017-10-20T16:52:09.269Z,3.30
2017-10-20T16:54:37.714Z,3.23
2017-10-20T16:57:06.944Z,3.00
2017-10-20T16:59:35.296Z,3.73
2017-10-20T17:02:03.673Z,3.17
2017-10-20T17:04:32.049Z,3.40
2017-10-20T17:07:00.579Z,3.20
2017-10-20T17:09:29.248Z,3.67
2017-10-20T17:11:57.634Z,3.13
2017-10-20T17:14:26.007Z,3.33
2017-10-20T17:16:55.040Z,3.47
2017-10-20T17:19:24.191Z,3.43
2017-10-20T17:21:52.648Z,2.50
2017-10-20T17:24:21.643Z,3.30
2017-10-20T17:26:50.324Z,3.60
2017-10-20T17:29:18.697Z,3.90
2017-10-20T17:31:46.897Z,3.63
2017-10-20T17:34:15.284Z,3.70
2017-10-20T17:36:43.645Z,3.53
2017-10-20T17:39:12.808Z,3.60
2017-10-20T17:41:41.168Z,4.00
2017-10-20T17:44:09.920Z,3.93
2017-10-20T17:46:38.553Z,3.60
2017-10-20T17:49:06.939Z,3.73
2017-10-20T17:51:35.326Z,4.50
2017-10-20T17:54:03.696Z,4.13
2017-10-20T17:56:32.063Z,4.13
2017-10-20T17:59:00.432Z,3.33
2017-10-20T18:01:28.819Z,4.50
2017-10-20T18:03:57.201Z,3.33
2017-10-20T18:06:25.569Z,4.30
2017-10-20T18:08:53.939Z,3.70
2017-10-20T18:11:22.312Z,4.70
2017-10-20T18:13:50.499Z,3.67
2017-10-20T18:16:18.870Z,4.00
2017-10-20T18:18:47.253Z,4.00
2017-10-20T18:21:15.635Z,3.33
2017-10-20T18:23:44.020Z,3.37
2017-10-20T18:26:12.624Z,3.77
2017-10-20T18:28:40.983Z,3.80
2017-10-20T18:31:09.364Z,3.90
2017-10-20T18:33:39.245Z,3.70
2017-10-20T18:36:07.813Z,4.10
2017-10-20T18:38:36.402Z,3.87
2017-10-20T18:41:04.772Z,3.80
2017-10-20T18:43:33.186Z,3.73
2017-10-20T18:46:01.624Z,3.47
2017-10-20T18:48:30.212Z,3.87
2017-10-20T18:50:58.685Z,3.80
2017-10-20T18:53:27.080Z,3.80
2017-10-20T18:55:55.468Z,4.30
2017-10-20T18:58:23.842Z,3.73
2017-10-20T19:00:52.218Z,4.17
2017-10-20T19:03:20.601Z,4.50
2017-10-20T19:05:48.967Z,4.03
2017-10-20T19:08:17.337Z,4.10
2017-10-20T19:10:45.719Z,4.23
2017-10-20T19:13:14.092Z,4.20
2017-10-20T19:15:42.645Z,4.10
2017-10-20T19:18:11.039Z,3.97
2017-10-20T19:20:39.414Z,4.10
2017-10-20T19:23:07.787Z,3.90
2017-10-20T19:25:36.176Z,4.03
2017-10-20T19:28:04.557Z,4.00
2017-10-20T19:30:34.685Z,3.90
2017-10-20T19:33:03.085Z,3.70
2017-10-20T19:35:33.861Z,3.50
2017-10-20T19:38:02.252Z,4.37
2017-10-20T19:40:30.646Z,4.13
2017-10-20T19:42:59.021Z,3.70
2017-10-20T19:45:27.413Z,3.50
2017-10-20T19:47:55.798Z,3.73
2017-10-20T19:50:24.209Z,3.97
2017-10-20T19:52:52.781Z,3.60
2017-10-20T19:55:21.152Z,3.50
2017-10-20T19:57:49.532Z,4.27
2017-10-20T20:00:18.019Z,5.10
2017-10-20T20:02:46.376Z,4.27
2017-10-20T20:05:15.304Z,4.37
2017-10-20T20:07:43.680Z,3.97
2017-10-20T20:10:12.081Z,3.80
2017-10-20T20:12:41.997Z,3.90
2017-10-20T20:15:10.197Z,3.70
2017-10-20T20:17:39.516Z,4.10
2017-10-20T20:20:07.696Z,4.73
2017-10-20T20:22:36.077Z,5.30
2017-10-20T20:25:04.253Z,4.63
2017-10-20T20:27:32.440Z,4.70
2017-10-20T20:30:00.618Z,4.67
2017-10-20T20:35:38.209Z,4.80
2017-10-20T20:38:06.402Z,4.50
2017-10-20T20:40:34.597Z,4.53
2017-10-20T20:43:03.230Z,4.60
2017-10-20T20:45:31.603Z,3.87
2017-10-20T20:47:59.998Z,4.30
2017-10-20T20:50:28.390Z,4.03
2017-10-20T20:52:57.552Z,4.07
2017-10-20T20:55:25.930Z,3.70
2017-10-20T20:57:54.390Z,3.97
2017-10-20T21:00:22.756Z,3.80
2017-10-20T21:02:51.118Z,3.80
2017-10-20T21:05:19.648Z,3.90
2017-10-20T21:07:48.003Z,4.43
2017-10-20T21:10:16.384Z,4.40
2017-10-20T21:12:44.754Z,4.23
2017-10-20T21:15:13.119Z,4.10
2017-10-20T21:17:41.495Z,4.77
2017-10-20T21:20:10.645Z,3.97
2017-10-20T21:22:39.025Z,4.47
2017-10-20T21:25:08.170Z,4.20
2017-10-20T21:27:36.542Z,3.53
2017-10-20T21:30:04.929Z,3.70
2017-10-20T21:32:33.291Z,3.97
2017-10-20T21:35:01.680Z,4.37
2017-10-20T21:37:30.048Z,4.17
2017-10-20T21:39:58.528Z,4.17
2017-10-20T21:42:26.901Z,3.90
2017-10-20T21:44:54.916Z,3.67
2017-10-20T21:47:23.300Z,4.50
2017-10-20T21:49:51.686Z,4.03
2017-10-20T21:52:20.195Z,3.90
2017-10-20T21:54:48.583Z,4.27
2017-10-20T21:57:16.959Z,4.47
2017-10-20T21:59:45.563Z,4.30
2017-10-20T22:02:14.141Z,4.43
2017-10-20T22:04:42.508Z,4.60
2017-10-20T22:07:10.934Z,5.20
2017-10-20T22:09:40.081Z,5.63
2017-10-20T22:12:08.978Z,6.27
2017-10-20T22:14:37.352Z,5.03
2017-10-20T22:17:05.719Z,5.03
2017-10-20T22:19:34.299Z,4.50
2017-10-20T22:22:02.671Z,4.60
2017-10-20T22:24:31.059Z,4.50
2017-10-20T22:26:59.447Z,4.90
2017-10-20T22:29:27.841Z,5.10
2017-10-20T22:31:56.212Z,5.20
2017-10-20T22:34:24.568Z,4.20
2017-10-20T22:36:52.938Z,4.73
2017-10-20T22:39:22.973Z,5.20
2017-10-20T22:41:51.351Z,4.97
2017-10-20T22:44:23.426Z,4.67
2017-10-20T22:46:51.939Z,4.90
2017-10-20T22:49:20.310Z,3.80
2017-10-20T22:51:48.663Z,4.27
2017-10-20T22:54:17.796Z,4.50
2017-10-20T22:56:46.363Z,4.90
2017-10-20T22:59:14.937Z,4.43
2017-10-20T23:01:43.346Z,6.70
2017-10-20T23:04:11.702Z,4.33
2017-10-20T23:06:40.110Z,5.07
2017-10-20T23:09:08.474Z,4.90
2017-10-20T23:11:36.925Z,5.10
2017-10-20T23:14:04.947Z,5.13
2017-10-20T23:16:33.319Z,4.47
2017-10-20T23:19:01.746Z,4.27
2017-10-20T23:21:30.164Z,4.50
2017-10-20T23:23:58.536Z,4.90
2017-10-20T23:26:26.914Z,5.07
2017-10-20T23:28:55.285Z,4.63
2017-10-20T23:31:23.655Z,4.20
2017-10-20T23:33:52.920Z,4.57
2017-10-20T23:36:21.501Z,4.67
2017-10-20T23:38:49.865Z,4.60
2017-10-20T23:41:18.223Z,4.20
2017-10-20T23:43:47.550Z,4.50
2017-10-20T23:46:16.951Z,4.43
2017-10-20T23:48:45.303Z,4.20
2017-10-20T23:51:13.659Z,4.47
2017-10-20T23:53:42.989Z,4.17
2017-10-20T23:56:11.846Z,4.13
2017-10-20T23:58:40.237Z,3.80
